sensor_id;sensor_type;location;lat;lon;timestamp;P1;durP1;ratioP1;P2;durP2;ratioP2
10851;SDS011;5479;52.046;6.314;2023-05-10T00:00:17;16.60;;;12.13;;
10851;SDS011;5479;52.046;6.314;2023-05-10T00:02:45;15.50;;;11.63;;
10851;SDS011;5479;52.046;6.314;2023-05-10T00:05:16;15.07;;;11.00;;
10851;SDS011;5479;52.046;6.314;2023-05-10T00:07:47;16.70;;;11.90;;
10851;SDS011;5479;52.046;6.314;2023-05-10T00:10:15;16.17;;;11.67;;
10851;SDS011;5479;52.046;6.314;2023-05-10T00:12:44;18.63;;;12.40;;
10851;SDS011;5479;52.046;6.314;2023-05-10T00:15:12;16.37;;;12.27;;
10851;SDS011;5479;52.046;6.314;2023-05-10T00:17:40;16.93;;;11.97;;
10851;SDS011;5479;52.046;6.314;2023-05-10T00:20:10;16.47;;;12.17;;
10851;SDS011;5479;52.046;6.314;2023-05-10T00:22:40;15.70;;;11.70;;
10851;SDS011;5479;52.046;6.314;2023-05-10T00:25:08;16.70;;;12.20;;
10851;SDS011;5479;52.046;6.314;2023-05-10T00:27:37;16.17;;;12.23;;
10851;SDS011;5479;52.046;6.314;2023-05-10T00:30:08;18.50;;;12.60;;
10851;SDS011;5479;52.046;6.314;2023-05-10T00:32:43;17.17;;;12.17;;
10851;SDS011;5479;52.046;6.314;2023-05-10T00:35:24;17.83;;;13.00;;
10851;SDS011;5479;52.046;6.314;2023-05-10T00:37:58;16.83;;;11.87;;
10851;SDS011;5479;52.046;6.314;2023-05-10T00:40:32;15.93;;;11.87;;
10851;SDS011;5479;52.046;6.314;2023-05-10T00:43:05;15.90;;;12.23;;
10851;SDS011;5479;52.046;6.314;2023-05-10T00:45:41;18.07;;;12.30;;
10851;SDS011;5479;52.046;6.314;2023-05-10T00:48:11;18.43;;;13.03;;
10851;SDS011;5479;52.046;6.314;2023-05-10T00:50:40;17.50;;;12.53;;
10851;SDS011;5479;52.046;6.314;2023-05-10T00:53:10;19.80;;;13.30;;
10851;SDS011;5479;52.046;6.314;2023-05-10T00:55:48;17.03;;;12.43;;
10851;SDS011;5479;52.046;6.314;2023-05-10T00:58:19;17.47;;;12.77;;
10851;SDS011;5479;52.046;6.314;2023-05-10T01:00:57;19.77;;;14.27;;
10851;SDS011;5479;52.046;6.314;2023-05-10T01:03:28;21.37;;;15.17;;
10851;SDS011;5479;52.046;6.314;2023-05-10T01:05:58;20.50;;;14.77;;
10851;SDS011;5479;52.046;6.314;2023-05-10T01:08:27;20.33;;;13.70;;
10851;SDS011;5479;52.046;6.314;2023-05-10T01:11:00;19.60;;;14.17;;
10851;SDS011;5479;52.046;6.314;2023-05-10T01:13:31;18.17;;;13.10;;
10851;SDS011;5479;52.046;6.314;2023-05-10T01:16:05;19.60;;;13.30;;
10851;SDS011;5479;52.046;6.314;2023-05-10T01:18:35;20.27;;;13.77;;
10851;SDS011;5479;52.046;6.314;2023-05-10T01:21:09;17.07;;;12.73;;
10851;SDS011;5479;52.046;6.314;2023-05-10T01:24:12;19.47;;;13.47;;
10851;SDS011;5479;52.046;6.314;2023-05-10T01:30:20;19.40;;;13.30;;
10851;SDS011;5479;52.046;6.314;2023-05-10T01:33:12;26.47;;;15.77;;
10851;SDS011;5479;52.046;6.314;2023-05-10T01:36:00;26.80;;;16.27;;
10851;SDS011;5479;52.046;6.314;2023-05-10T01:38:41;25.27;;;15.73;;
10851;SDS011;5479;52.046;6.314;2023-05-10T01:41:37;24.77;;;14.90;;
10851;SDS011;5479;52.046;6.314;2023-05-10T01:44:16;26.53;;;15.80;;
10851;SDS011;5479;52.046;6.314;2023-05-10T01:46:51;27.47;;;15.93;;
10851;SDS011;5479;52.046;6.314;2023-05-10T01:49:29;25.27;;;15.47;;
10851;SDS011;5479;52.046;6.314;2023-05-10T01:52:14;26.37;;;16.47;;
10851;SDS011;5479;52.046;6.314;2023-05-10T01:54:55;27.93;;;16.10;;
10851;SDS011;5479;52.046;6.314;2023-05-10T01:57:31;31.03;;;17.57;;
10851;SDS011;5479;52.046;6.314;2023-05-10T02:00:05;33.47;;;18.97;;
10851;SDS011;5479;52.046;6.314;2023-05-10T02:02:37;29.50;;;18.60;;
10851;SDS011;5479;52.046;6.314;2023-05-10T02:05:09;32.57;;;19.33;;
10851;SDS011;5479;52.046;6.314;2023-05-10T02:07:40;35.93;;;20.10;;
10851;SDS011;5479;52.046;6.314;2023-05-10T02:10:09;33.83;;;19.47;;
10851;SDS011;5479;52.046;6.314;2023-05-10T02:12:41;34.33;;;20.20;;
10851;SDS011;5479;52.046;6.314;2023-05-10T02:15:15;39.53;;;21.50;;
10851;SDS011;5479;52.046;6.314;2023-05-10T02:17:47;34.43;;;20.20;;
10851;SDS011;5479;52.046;6.314;2023-05-10T02:20:20;43.87;;;23.30;;
10851;SDS011;5479;52.046;6.314;2023-05-10T02:22:54;45.23;;;23.33;;
10851;SDS011;5479;52.046;6.314;2023-05-10T02:25:26;46.37;;;24.50;;
10851;SDS011;5479;52.046;6.314;2023-05-10T02:27:56;48.40;;;24.07;;
10851;SDS011;5479;52.046;6.314;2023-05-10T02:30:52;46.10;;;24.57;;
10851;SDS011;5479;52.046;6.314;2023-05-10T02:33:38;49.43;;;26.57;;
10851;SDS011;5479;52.046;6.314;2023-05-10T02:36:14;57.23;;;28.70;;
10851;SDS011;5479;52.046;6.314;2023-05-10T02:38:49;56.80;;;28.07;;
10851;SDS011;5479;52.046;6.314;2023-05-10T02:41:21;59.50;;;29.83;;
10851;SDS011;5479;52.046;6.314;2023-05-10T02:44:00;67.60;;;31.87;;
10851;SDS011;5479;52.046;6.314;2023-05-10T02:46:32;69.60;;;33.40;;
10851;SDS011;5479;52.046;6.314;2023-05-10T02:49:00;71.70;;;33.20;;
10851;SDS011;5479;52.046;6.314;2023-05-10T02:51:35;74.10;;;34.97;;
10851;SDS011;5479;52.046;6.314;2023-05-10T02:54:11;72.37;;;34.80;;
10851;SDS011;5479;52.046;6.314;2023-05-10T02:56:57;72.23;;;35.37;;
10851;SDS011;5479;52.046;6.314;2023-05-10T02:59:28;76.80;;;35.73;;
10851;SDS011;5479;52.046;6.314;2023-05-10T03:01:57;85.57;;;39.57;;
10851;SDS011;5479;52.046;6.314;2023-05-10T03:04:28;76.60;;;36.80;;
10851;SDS011;5479;52.046;6.314;2023-05-10T03:06:59;85.00;;;37.97;;
10851;SDS011;5479;52.046;6.314;2023-05-10T03:09:28;80.93;;;38.40;;
10851;SDS011;5479;52.046;6.314;2023-05-10T03:12:02;89.37;;;40.70;;
10851;SDS011;5479;52.046;6.314;2023-05-10T03:14:42;87.20;;;40.77;;
10851;SDS011;5479;52.046;6.314;2023-05-10T03:17:21;84.60;;;39.17;;
10851;SDS011;5479;52.046;6.314;2023-05-10T03:20:03;96.70;;;42.43;;
10851;SDS011;5479;52.046;6.314;2023-05-10T03:22:43;88.17;;;41.90;;
10851;SDS011;5479;52.046;6.314;2023-05-10T03:25:23;87.00;;;41.00;;
10851;SDS011;5479;52.046;6.314;2023-05-10T03:27:53;87.67;;;41.73;;
10851;SDS011;5479;52.046;6.314;2023-05-10T03:30:22;96.13;;;44.37;;
10851;SDS011;5479;52.046;6.314;2023-05-10T03:33:12;85.00;;;41.00;;
10851;SDS011;5479;52.046;6.314;2023-05-10T03:35:44;88.10;;;42.13;;
10851;SDS011;5479;52.046;6.314;2023-05-10T03:38:14;90.50;;;42.43;;
10851;SDS011;5479;52.046;6.314;2023-05-10T03:40:43;91.17;;;42.47;;
10851;SDS011;5479;52.046;6.314;2023-05-10T03:43:11;91.63;;;42.33;;
10851;SDS011;5479;52.046;6.314;2023-05-10T03:45:42;83.43;;;41.70;;
10851;SDS011;5479;52.046;6.314;2023-05-10T03:48:12;79.93;;;40.13;;
10851;SDS011;5479;52.046;6.314;2023-05-10T03:50:42;83.20;;;41.13;;
10851;SDS011;5479;52.046;6.314;2023-05-10T03:53:11;80.77;;;39.77;;
10851;SDS011;5479;52.046;6.314;2023-05-10T03:55:44;81.43;;;39.43;;
10851;SDS011;5479;52.046;6.314;2023-05-10T03:58:19;80.50;;;38.20;;
10851;SDS011;5479;52.046;6.314;2023-05-10T04:00:49;76.53;;;37.90;;
10851;SDS011;5479;52.046;6.314;2023-05-10T04:03:18;80.40;;;38.63;;
10851;SDS011;5479;52.046;6.314;2023-05-10T04:05:46;74.17;;;38.87;;
10851;SDS011;5479;52.046;6.314;2023-05-10T04:08:18;85.27;;;39.07;;
10851;SDS011;5479;52.046;6.314;2023-05-10T04:10:46;81.83;;;37.93;;
10851;SDS011;5479;52.046;6.314;2023-05-10T04:13:15;81.97;;;38.00;;
10851;SDS011;5479;52.046;6.314;2023-05-10T04:15:45;79.47;;;37.80;;
10851;SDS011;5479;52.046;6.314;2023-05-10T04:18:16;77.07;;;38.00;;
10851;SDS011;5479;52.046;6.314;2023-05-10T04:20:46;80.07;;;37.97;;
10851;SDS011;5479;52.046;6.314;2023-05-10T04:23:15;81.83;;;38.47;;
10851;SDS011;5479;52.046;6.314;2023-05-10T04:25:46;85.10;;;38.93;;
10851;SDS011;5479;52.046;6.314;2023-05-10T04:28:18;79.80;;;40.37;;
10851;SDS011;5479;52.046;6.314;2023-05-10T04:30:46;86.33;;;42.17;;
10851;SDS011;5479;52.046;6.314;2023-05-10T04:33:16;75.80;;;38.60;;
10851;SDS011;5479;52.046;6.314;2023-05-10T04:35:44;84.77;;;40.97;;
10851;SDS011;5479;52.046;6.314;2023-05-10T04:38:12;82.77;;;41.43;;
10851;SDS011;5479;52.046;6.314;2023-05-10T04:40:43;75.83;;;41.17;;
10851;SDS011;5479;52.046;6.314;2023-05-10T04:43:12;75.43;;;39.43;;
10851;SDS011;5479;52.046;6.314;2023-05-10T04:45:41;74.80;;;40.13;;
10851;SDS011;5479;52.046;6.314;2023-05-10T04:48:09;73.53;;;41.13;;
10851;SDS011;5479;52.046;6.314;2023-05-10T04:50:37;71.60;;;39.73;;
10851;SDS011;5479;52.046;6.314;2023-05-10T04:53:06;71.63;;;40.33;;
10851;SDS011;5479;52.046;6.314;2023-05-10T04:55:35;72.33;;;40.67;;
10851;SDS011;5479;52.046;6.314;2023-05-10T04:58:03;70.03;;;40.63;;
10851;SDS011;5479;52.046;6.314;2023-05-10T05:00:38;68.87;;;40.07;;
10851;SDS011;5479;52.046;6.314;2023-05-10T05:03:10;67.53;;;39.30;;
10851;SDS011;5479;52.046;6.314;2023-05-10T05:05:42;68.10;;;39.50;;
10851;SDS011;5479;52.046;6.314;2023-05-10T05:08:13;68.53;;;39.07;;
10851;SDS011;5479;52.046;6.314;2023-05-10T05:10:45;67.47;;;40.17;;
10851;SDS011;5479;52.046;6.314;2023-05-10T05:13:13;69.10;;;39.30;;
10851;SDS011;5479;52.046;6.314;2023-05-10T05:15:46;72.83;;;40.00;;
10851;SDS011;5479;52.046;6.314;2023-05-10T05:18:17;71.27;;;39.67;;
10851;SDS011;5479;52.046;6.314;2023-05-10T05:20:45;70.40;;;38.90;;
10851;SDS011;5479;52.046;6.314;2023-05-10T05:23:18;69.97;;;39.97;;
10851;SDS011;5479;52.046;6.314;2023-05-10T05:25:52;67.40;;;37.33;;
10851;SDS011;5479;52.046;6.314;2023-05-10T05:28:20;63.97;;;39.30;;
10851;SDS011;5479;52.046;6.314;2023-05-10T05:30:50;65.73;;;37.13;;
10851;SDS011;5479;52.046;6.314;2023-05-10T05:33:19;65.17;;;37.37;;
10851;SDS011;5479;52.046;6.314;2023-05-10T05:35:47;61.40;;;36.70;;
10851;SDS011;5479;52.046;6.314;2023-05-10T05:38:17;58.07;;;35.33;;
10851;SDS011;5479;52.046;6.314;2023-05-10T05:40:47;54.90;;;33.90;;
10851;SDS011;5479;52.046;6.314;2023-05-10T05:43:18;57.03;;;35.37;;
10851;SDS011;5479;52.046;6.314;2023-05-10T05:45:46;58.33;;;35.23;;
10851;SDS011;5479;52.046;6.314;2023-05-10T05:48:19;57.53;;;34.23;;
10851;SDS011;5479;52.046;6.314;2023-05-10T05:50:48;58.07;;;34.17;;
10851;SDS011;5479;52.046;6.314;2023-05-10T05:53:16;57.50;;;34.07;;
10851;SDS011;5479;52.046;6.314;2023-05-10T05:55:51;57.40;;;34.77;;
10851;SDS011;5479;52.046;6.314;2023-05-10T05:58:20;60.63;;;35.13;;
10851;SDS011;5479;52.046;6.314;2023-05-10T06:00:49;60.57;;;35.83;;
10851;SDS011;5479;52.046;6.314;2023-05-10T06:03:19;61.00;;;34.90;;
10851;SDS011;5479;52.046;6.314;2023-05-10T06:05:57;55.07;;;34.87;;
10851;SDS011;5479;52.046;6.314;2023-05-10T06:08:28;58.50;;;35.27;;
10851;SDS011;5479;52.046;6.314;2023-05-10T06:10:56;55.63;;;33.43;;
10851;SDS011;5479;52.046;6.314;2023-05-10T06:13:27;57.83;;;32.97;;
10851;SDS011;5479;52.046;6.314;2023-05-10T06:16:00;57.63;;;32.77;;
10851;SDS011;5479;52.046;6.314;2023-05-10T06:18:29;56.77;;;33.13;;
10851;SDS011;5479;52.046;6.314;2023-05-10T06:20:58;54.20;;;33.53;;
10851;SDS011;5479;52.046;6.314;2023-05-10T06:23:27;62.23;;;38.13;;
10851;SDS011;5479;52.046;6.314;2023-05-10T06:25:55;56.87;;;35.30;;
10851;SDS011;5479;52.046;6.314;2023-05-10T06:28:23;56.57;;;33.83;;
10851;SDS011;5479;52.046;6.314;2023-05-10T06:30:51;52.77;;;32.00;;
10851;SDS011;5479;52.046;6.314;2023-05-10T06:33:31;53.33;;;31.87;;
10851;SDS011;5479;52.046;6.314;2023-05-10T06:35:59;49.17;;;32.20;;
10851;SDS011;5479;52.046;6.314;2023-05-10T06:38:28;50.87;;;32.73;;
10851;SDS011;5479;52.046;6.314;2023-05-10T06:40:56;54.93;;;32.37;;
10851;SDS011;5479;52.046;6.314;2023-05-10T06:43:26;49.90;;;31.57;;
10851;SDS011;5479;52.046;6.314;2023-05-10T06:45:55;48.23;;;29.63;;
10851;SDS011;5479;52.046;6.314;2023-05-10T06:48:27;48.03;;;30.80;;
10851;SDS011;5479;52.046;6.314;2023-05-10T06:50:58;48.47;;;30.57;;
10851;SDS011;5479;52.046;6.314;2023-05-10T06:53:26;47.30;;;29.80;;
10851;SDS011;5479;52.046;6.314;2023-05-10T06:55:56;48.30;;;29.57;;
10851;SDS011;5479;52.046;6.314;2023-05-10T06:58:24;46.27;;;29.20;;
10851;SDS011;5479;52.046;6.314;2023-05-10T07:01:01;46.23;;;30.27;;
10851;SDS011;5479;52.046;6.314;2023-05-10T07:03:32;45.93;;;29.00;;
10851;SDS011;5479;52.046;6.314;2023-05-10T07:06:11;54.17;;;30.40;;
10851;SDS011;5479;52.046;6.314;2023-05-10T07:08:43;52.37;;;30.17;;
10851;SDS011;5479;52.046;6.314;2023-05-10T07:11:11;51.83;;;30.90;;
10851;SDS011;5479;52.046;6.314;2023-05-10T07:13:39;49.70;;;30.13;;
10851;SDS011;5479;52.046;6.314;2023-05-10T07:16:10;53.10;;;32.03;;
10851;SDS011;5479;52.046;6.314;2023-05-10T07:18:38;53.07;;;31.60;;
10851;SDS011;5479;52.046;6.314;2023-05-10T07:21:13;52.83;;;31.63;;
10851;SDS011;5479;52.046;6.314;2023-05-10T07:23:41;54.77;;;32.43;;
10851;SDS011;5479;52.046;6.314;2023-05-10T07:26:09;58.87;;;32.13;;
10851;SDS011;5479;52.046;6.314;2023-05-10T07:28:38;55.43;;;32.13;;
10851;SDS011;5479;52.046;6.314;2023-05-10T07:31:06;52.97;;;31.73;;
10851;SDS011;5479;52.046;6.314;2023-05-10T07:33:34;57.63;;;33.13;;
10851;SDS011;5479;52.046;6.314;2023-05-10T07:36:03;55.57;;;31.20;;
10851;SDS011;5479;52.046;6.314;2023-05-10T07:38:34;51.20;;;30.07;;
10851;SDS011;5479;52.046;6.314;2023-05-10T07:41:02;57.73;;;30.97;;
10851;SDS011;5479;52.046;6.314;2023-05-10T07:43:30;49.80;;;29.03;;
10851;SDS011;5479;52.046;6.314;2023-05-10T07:45:58;47.13;;;29.17;;
10851;SDS011;5479;52.046;6.314;2023-05-10T07:48:26;47.70;;;28.93;;
10851;SDS011;5479;52.046;6.314;2023-05-10T07:50:54;44.53;;;28.97;;
10851;SDS011;5479;52.046;6.314;2023-05-10T07:53:22;40.03;;;26.83;;
10851;SDS011;5479;52.046;6.314;2023-05-10T07:55:52;44.83;;;28.10;;
10851;SDS011;5479;52.046;6.314;2023-05-10T07:58:24;46.03;;;27.93;;
10851;SDS011;5479;52.046;6.314;2023-05-10T08:00:57;47.60;;;28.33;;
10851;SDS011;5479;52.046;6.314;2023-05-10T08:03:26;42.90;;;28.17;;
10851;SDS011;5479;52.046;6.314;2023-05-10T08:05:54;44.73;;;28.97;;
10851;SDS011;5479;52.046;6.314;2023-05-10T08:08:22;39.63;;;26.73;;
10851;SDS011;5479;52.046;6.314;2023-05-10T08:10:52;37.47;;;26.43;;
10851;SDS011;5479;52.046;6.314;2023-05-10T08:13:24;42.10;;;26.93;;
10851;SDS011;5479;52.046;6.314;2023-05-10T08:15:52;40.47;;;26.87;;
10851;SDS011;5479;52.046;6.314;2023-05-10T08:18:20;41.10;;;28.80;;
10851;SDS011;5479;52.046;6.314;2023-05-10T08:20:48;42.30;;;28.20;;
10851;SDS011;5479;52.046;6.314;2023-05-10T08:23:25;38.10;;;27.57;;
10851;SDS011;5479;52.046;6.314;2023-05-10T08:25:54;42.13;;;27.90;;
10851;SDS011;5479;52.046;6.314;2023-05-10T08:28:24;36.97;;;26.80;;
10851;SDS011;5479;52.046;6.314;2023-05-10T08:30:54;34.70;;;27.30;;
10851;SDS011;5479;52.046;6.314;2023-05-10T08:33:23;39.13;;;27.13;;
10851;SDS011;5479;52.046;6.314;2023-05-10T08:35:52;36.50;;;27.48;;
10851;SDS011;5479;52.046;6.314;2023-05-10T08:38:21;37.13;;;27.52;;
10851;SDS011;5479;52.046;6.314;2023-05-10T08:40:49;38.00;;;28.67;;
10851;SDS011;5479;52.046;6.314;2023-05-10T08:43:24;36.53;;;27.60;;
10851;SDS011;5479;52.046;6.314;2023-05-10T08:45:55;34.08;;;26.50;;
10851;SDS011;5479;52.046;6.314;2023-05-10T08:48:29;32.20;;;25.75;;
10851;SDS011;5479;52.046;6.314;2023-05-10T08:50:58;33.50;;;26.27;;
10851;SDS011;5479;52.046;6.314;2023-05-10T08:53:28;36.30;;;26.30;;
10851;SDS011;5479;52.046;6.314;2023-05-10T08:56:04;32.05;;;25.58;;
10851;SDS011;5479;52.046;6.314;2023-05-10T08:58:36;35.05;;;27.20;;
10851;SDS011;5479;52.046;6.314;2023-05-10T09:01:05;35.13;;;26.38;;
10851;SDS011;5479;52.046;6.314;2023-05-10T09:03:34;34.72;;;26.30;;
10851;SDS011;5479;52.046;6.314;2023-05-10T09:06:04;33.13;;;25.55;;
10851;SDS011;5479;52.046;6.314;2023-05-10T09:08:33;32.03;;;23.60;;
10851;SDS011;5479;52.046;6.314;2023-05-10T09:11:03;32.88;;;26.98;;
10851;SDS011;5479;52.046;6.314;2023-05-10T09:13:32;32.60;;;25.90;;
10851;SDS011;5479;52.046;6.314;2023-05-10T09:16:04;36.03;;;27.00;;
10851;SDS011;5479;52.046;6.314;2023-05-10T09:18:33;37.30;;;27.03;;
10851;SDS011;5479;52.046;6.314;2023-05-10T09:21:03;34.40;;;25.40;;
10851;SDS011;5479;52.046;6.314;2023-05-10T09:23:31;30.47;;;22.30;;
10851;SDS011;5479;52.046;6.314;2023-05-10T09:26:05;30.07;;;20.53;;
10851;SDS011;5479;52.046;6.314;2023-05-10T09:28:34;29.17;;;20.63;;
10851;SDS011;5479;52.046;6.314;2023-05-10T09:31:18;34.00;;;20.83;;
10851;SDS011;5479;52.046;6.314;2023-05-10T09:33:47;36.60;;;22.50;;
10851;SDS011;5479;52.046;6.314;2023-05-10T09:36:17;32.13;;;22.23;;
10851;SDS011;5479;52.046;6.314;2023-05-10T09:38:46;33.53;;;21.70;;
10851;SDS011;5479;52.046;6.314;2023-05-10T09:41:27;33.17;;;22.00;;
10851;SDS011;5479;52.046;6.314;2023-05-10T09:43:57;35.67;;;22.03;;
10851;SDS011;5479;52.046;6.314;2023-05-10T09:46:29;36.10;;;22.13;;
10851;SDS011;5479;52.046;6.314;2023-05-10T09:48:57;35.43;;;23.23;;
10851;SDS011;5479;52.046;6.314;2023-05-10T09:51:29;35.33;;;23.70;;
10851;SDS011;5479;52.046;6.314;2023-05-10T09:54:11;31.87;;;21.90;;
10851;SDS011;5479;52.046;6.314;2023-05-10T09:56:41;35.77;;;22.13;;
10851;SDS011;5479;52.046;6.314;2023-05-10T09:59:15;28.27;;;21.50;;
10851;SDS011;5479;52.046;6.314;2023-05-10T10:01:50;31.30;;;21.57;;
10851;SDS011;5479;52.046;6.314;2023-05-10T10:04:19;29.17;;;20.10;;
10851;SDS011;5479;52.046;6.314;2023-05-10T10:06:57;28.07;;;19.80;;
10851;SDS011;5479;52.046;6.314;2023-05-10T10:09:27;26.53;;;19.67;;
10851;SDS011;5479;52.046;6.314;2023-05-10T10:11:55;26.08;;;18.90;;
10851;SDS011;5479;52.046;6.314;2023-05-10T10:14:24;27.10;;;19.10;;
10851;SDS011;5479;52.046;6.314;2023-05-10T10:16:53;24.47;;;18.40;;
10851;SDS011;5479;52.046;6.314;2023-05-10T10:19:26;21.10;;;16.47;;
10851;SDS011;5479;52.046;6.314;2023-05-10T10:21:54;20.08;;;16.13;;
10851;SDS011;5479;52.046;6.314;2023-05-10T10:24:22;21.75;;;16.48;;
10851;SDS011;5479;52.046;6.314;2023-05-10T10:26:54;21.10;;;15.60;;
10851;SDS011;5479;52.046;6.314;2023-05-10T10:29:31;20.88;;;14.38;;
10851;SDS011;5479;52.046;6.314;2023-05-10T10:32:10;19.92;;;15.13;;
10851;SDS011;5479;52.046;6.314;2023-05-10T10:34:49;18.63;;;14.07;;
10851;SDS011;5479;52.046;6.314;2023-05-10T10:37:17;17.25;;;14.18;;
10851;SDS011;5479;52.046;6.314;2023-05-10T10:39:49;17.98;;;13.95;;
10851;SDS011;5479;52.046;6.314;2023-05-10T10:45:13;13.88;;;11.68;;
10851;SDS011;5479;52.046;6.314;2023-05-10T10:47:43;14.88;;;11.85;;
10851;SDS011;5479;52.046;6.314;2023-05-10T10:50:12;15.32;;;12.15;;
10851;SDS011;5479;52.046;6.314;2023-05-10T10:52:42;15.20;;;11.65;;
10851;SDS011;5479;52.046;6.314;2023-05-10T10:55:11;13.35;;;10.48;;
10851;SDS011;5479;52.046;6.314;2023-05-10T10:57:44;13.18;;;9.90;;
10851;SDS011;5479;52.046;6.314;2023-05-10T11:00:27;12.90;;;9.73;;
10851;SDS011;5479;52.046;6.314;2023-05-10T11:03:00;12.23;;;9.35;;
10851;SDS011;5479;52.046;6.314;2023-05-10T11:05:37;13.15;;;9.77;;
10851;SDS011;5479;52.046;6.314;2023-05-10T11:08:11;13.35;;;9.00;;
10851;SDS011;5479;52.046;6.314;2023-05-10T11:10:49;10.73;;;8.10;;
10851;SDS011;5479;52.046;6.314;2023-05-10T11:13:26;10.13;;;7.22;;
10851;SDS011;5479;52.046;6.314;2023-05-10T11:15:56;9.45;;;6.50;;
10851;SDS011;5479;52.046;6.314;2023-05-10T11:18:27;9.48;;;7.20;;
10851;SDS011;5479;52.046;6.314;2023-05-10T11:20:56;11.45;;;7.55;;
10851;SDS011;5479;52.046;6.314;2023-05-10T11:23:29;9.13;;;6.32;;
10851;SDS011;5479;52.046;6.314;2023-05-10T11:25:58;10.63;;;8.13;;
10851;SDS011;5479;52.046;6.314;2023-05-10T11:28:29;10.73;;;8.20;;
10851;SDS011;5479;52.046;6.314;2023-05-10T11:30:59;11.38;;;8.02;;
10851;SDS011;5479;52.046;6.314;2023-05-10T11:33:36;10.65;;;8.38;;
10851;SDS011;5479;52.046;6.314;2023-05-10T11:36:14;12.27;;;9.93;;
10851;SDS011;5479;52.046;6.314;2023-05-10T11:38:43;10.68;;;8.40;;
10851;SDS011;5479;52.046;6.314;2023-05-10T11:41:15;14.05;;;9.30;;
10851;SDS011;5479;52.046;6.314;2023-05-10T11:43:46;11.60;;;9.63;;
10851;SDS011;5479;52.046;6.314;2023-05-10T11:46:18;11.98;;;9.88;;
10851;SDS011;5479;52.046;6.314;2023-05-10T11:48:51;12.18;;;9.73;;
10851;SDS011;5479;52.046;6.314;2023-05-10T11:51:20;15.23;;;12.52;;
10851;SDS011;5479;52.046;6.314;2023-05-10T11:53:53;13.18;;;10.75;;
10851;SDS011;5479;52.046;6.314;2023-05-10T11:56:23;12.40;;;10.07;;
10851;SDS011;5479;52.046;6.314;2023-05-10T11:58:57;11.82;;;9.27;;
10851;SDS011;5479;52.046;6.314;2023-05-10T12:01:30;12.15;;;9.15;;
10851;SDS011;5479;52.046;6.314;2023-05-10T12:04:00;11.68;;;8.93;;
10851;SDS011;5479;52.046;6.314;2023-05-10T12:06:29;12.07;;;9.70;;
10851;SDS011;5479;52.046;6.314;2023-05-10T12:09:01;12.73;;;10.15;;
10851;SDS011;5479;52.046;6.314;2023-05-10T12:11:36;12.95;;;9.23;;
10851;SDS011;5479;52.046;6.314;2023-05-10T12:14:07;14.65;;;10.15;;
10851;SDS011;5479;52.046;6.314;2023-05-10T12:16:35;13.20;;;9.60;;
10851;SDS011;5479;52.046;6.314;2023-05-10T12:19:06;12.63;;;10.73;;
10851;SDS011;5479;52.046;6.314;2023-05-10T12:21:35;13.50;;;9.68;;
10851;SDS011;5479;52.046;6.314;2023-05-10T12:24:07;11.82;;;8.90;;
10851;SDS011;5479;52.046;6.314;2023-05-10T12:26:36;10.18;;;7.60;;
10851;SDS011;5479;52.046;6.314;2023-05-10T12:29:14;10.20;;;8.30;;
10851;SDS011;5479;52.046;6.314;2023-05-10T12:31:52;9.23;;;7.55;;
10851;SDS011;5479;52.046;6.314;2023-05-10T12:34:32;8.85;;;5.68;;
10851;SDS011;5479;52.046;6.314;2023-05-10T12:37:01;8.45;;;5.90;;
10851;SDS011;5479;52.046;6.314;2023-05-10T12:39:39;8.13;;;5.90;;
10851;SDS011;5479;52.046;6.314;2023-05-10T12:42:12;8.68;;;5.50;;
10851;SDS011;5479;52.046;6.314;2023-05-10T12:44:41;7.03;;;4.60;;
10851;SDS011;5479;52.046;6.314;2023-05-10T12:47:11;6.45;;;4.88;;
10851;SDS011;5479;52.046;6.314;2023-05-10T12:49:42;8.02;;;5.68;;
10851;SDS011;5479;52.046;6.314;2023-05-10T12:52:11;8.18;;;5.72;;
10851;SDS011;5479;52.046;6.314;2023-05-10T12:54:42;8.38;;;5.78;;
10851;SDS011;5479;52.046;6.314;2023-05-10T12:57:10;7.22;;;5.10;;
10851;SDS011;5479;52.046;6.314;2023-05-10T12:59:38;8.05;;;5.30;;
10851;SDS011;5479;52.046;6.314;2023-05-10T13:02:06;7.55;;;5.35;;
10851;SDS011;5479;52.046;6.314;2023-05-10T13:04:36;8.38;;;5.10;;
10851;SDS011;5479;52.046;6.314;2023-05-10T13:07:15;6.95;;;5.25;;
10851;SDS011;5479;52.046;6.314;2023-05-10T13:09:43;7.40;;;5.40;;
10851;SDS011;5479;52.046;6.314;2023-05-10T13:12:22;7.90;;;5.40;;
10851;SDS011;5479;52.046;6.314;2023-05-10T13:14:51;7.35;;;5.13;;
10851;SDS011;5479;52.046;6.314;2023-05-10T13:17:19;7.57;;;4.75;;
10851;SDS011;5479;52.046;6.314;2023-05-10T13:19:49;6.57;;;4.82;;
10851;SDS011;5479;52.046;6.314;2023-05-10T13:22:18;6.80;;;5.00;;
10851;SDS011;5479;52.046;6.314;2023-05-10T13:24:47;8.10;;;5.40;;
10851;SDS011;5479;52.046;6.314;2023-05-10T13:27:15;8.23;;;5.20;;
10851;SDS011;5479;52.046;6.314;2023-05-10T13:29:45;7.50;;;6.00;;
10851;SDS011;5479;52.046;6.314;2023-05-10T13:32:16;9.30;;;6.43;;
10851;SDS011;5479;52.046;6.314;2023-05-10T13:34:45;7.90;;;6.10;;
10851;SDS011;5479;52.046;6.314;2023-05-10T13:37:14;7.57;;;5.50;;
10851;SDS011;5479;52.046;6.314;2023-05-10T13:39:44;8.27;;;6.40;;
10851;SDS011;5479;52.046;6.314;2023-05-10T13:42:17;8.95;;;6.03;;
10851;SDS011;5479;52.046;6.314;2023-05-10T13:44:45;9.70;;;5.88;;
10851;SDS011;5479;52.046;6.314;2023-05-10T13:47:13;8.05;;;5.88;;
10851;SDS011;5479;52.046;6.314;2023-05-10T13:49:42;8.05;;;5.90;;
10851;SDS011;5479;52.046;6.314;2023-05-10T13:52:10;8.07;;;5.45;;
10851;SDS011;5479;52.046;6.314;2023-05-10T13:54:38;9.50;;;6.40;;
10851;SDS011;5479;52.046;6.314;2023-05-10T13:57:08;7.95;;;5.82;;
10851;SDS011;5479;52.046;6.314;2023-05-10T13:59:40;7.72;;;5.35;;
10851;SDS011;5479;52.046;6.314;2023-05-10T14:02:08;8.13;;;5.78;;
10851;SDS011;5479;52.046;6.314;2023-05-10T14:04:38;8.45;;;6.60;;
10851;SDS011;5479;52.046;6.314;2023-05-10T14:07:09;8.40;;;6.50;;
10851;SDS011;5479;52.046;6.314;2023-05-10T14:09:39;8.18;;;5.93;;
10851;SDS011;5479;52.046;6.314;2023-05-10T14:12:09;8.23;;;6.53;;
10851;SDS011;5479;52.046;6.314;2023-05-10T14:14:37;8.57;;;6.07;;
10851;SDS011;5479;52.046;6.314;2023-05-10T14:17:05;7.65;;;5.35;;
10851;SDS011;5479;52.046;6.314;2023-05-10T14:19:46;7.68;;;6.05;;
10851;SDS011;5479;52.046;6.314;2023-05-10T14:22:14;7.15;;;5.63;;
10851;SDS011;5479;52.046;6.314;2023-05-10T14:24:42;8.85;;;5.65;;
10851;SDS011;5479;52.046;6.314;2023-05-10T14:27:15;9.10;;;6.38;;
10851;SDS011;5479;52.046;6.314;2023-05-10T14:29:44;8.07;;;5.50;;
10851;SDS011;5479;52.046;6.314;2023-05-10T14:32:12;8.50;;;5.70;;
10851;SDS011;5479;52.046;6.314;2023-05-10T14:34:40;8.50;;;6.10;;
10851;SDS011;5479;52.046;6.314;2023-05-10T14:37:09;10.68;;;6.45;;
10851;SDS011;5479;52.046;6.314;2023-05-10T14:39:59;8.25;;;5.80;;
10851;SDS011;5479;52.046;6.314;2023-05-10T14:42:29;9.48;;;6.28;;
10851;SDS011;5479;52.046;6.314;2023-05-10T14:45:01;8.57;;;6.15;;
10851;SDS011;5479;52.046;6.314;2023-05-10T14:47:29;7.60;;;5.90;;
10851;SDS011;5479;52.046;6.314;2023-05-10T14:50:04;9.05;;;5.97;;
10851;SDS011;5479;52.046;6.314;2023-05-10T14:52:35;9.00;;;6.00;;
10851;SDS011;5479;52.046;6.314;2023-05-10T14:55:06;8.73;;;5.78;;
10851;SDS011;5479;52.046;6.314;2023-05-10T14:57:36;8.57;;;5.80;;
10851;SDS011;5479;52.046;6.314;2023-05-10T15:00:09;8.43;;;6.13;;
10851;SDS011;5479;52.046;6.314;2023-05-10T15:02:38;9.48;;;6.63;;
10851;SDS011;5479;52.046;6.314;2023-05-10T15:05:06;8.73;;;6.10;;
10851;SDS011;5479;52.046;6.314;2023-05-10T15:07:37;10.43;;;6.63;;
10851;SDS011;5479;52.046;6.314;2023-05-10T15:10:05;10.00;;;6.60;;
10851;SDS011;5479;52.046;6.314;2023-05-10T15:12:34;9.27;;;6.68;;